Glen White, West Virginia
Current Conditions -  °F | °C
As of 2:51 PM on Sunday 23 Nov 2014 (Local Time) from KBKW Reporting Station
Light Rain Light Rain  
Wind Chill: 50°   Ceiling: 8500
Heat Index: 50°   Visibility: 10mi
Dew Point: 41°   Wind: 17mph
Humidity: 71%   Direction: 140°SE
Pressure: 29.94"   Gusts: 24mph
Location:  37.73°N, 81.28°W
Report Text: KBKW 231951Z AUTO 14015G21KT 10SM -RA FEW065 BKN085 OVC110 10/05 A2994 RMK AO2 RAB34 SLP142 P0000 T01000050
Loading
Personal Weather Stations






























Interactive Weather Map New forecast layout! Learn more

10-Day Weather Forecast

Advertisements
Track Severe Weather on mobile